Time;durP1;ratioP1;P1;durP2;ratioP2;P2;SDS_P1;SDS_P2;PMS_P1;PMS_P2;Temp;Humidity;BMP_temperature;BMP_pressure;BME280_temperature;BME280_humidity;BME280_pressure;Samples;Min_cycle;Max_cycle;Signal;HPM_P1;HPM_P2
2023/12/11 00:01:32;;;;;;;;;;;1.60;99.90;;;;;;4972227;28;19982;-65
2023/12/11 00:03:57;;;;;;;;;;;1.70;99.90;;;;;;4966719;28;19954;-64
2023/12/11 00:06:23;;;;;;;;;;;1.80;99.90;;;;;;4971546;28;20378;-65
2023/12/11 00:08:48;;;;;;;;;;;1.90;99.90;;;;;;4971564;28;20029;-64
2023/12/11 00:11:14;;;;;;;;;;;1.90;99.90;;;;;;4970339;28;20055;-69
2023/12/11 00:13:39;;;;;;;;;;;1.80;99.90;;;;;;4969571;28;19956;-70
2023/12/11 00:16:05;;;;;;;;;;;1.90;99.90;;;;;;4970127;28;20414;-72
2023/12/11 00:18:31;;;;;;;;;;;1.90;99.90;;;;;;4971017;28;20043;-70
2023/12/11 00:20:56;;;;;;;;;;;1.80;99.90;;;;;;4969501;28;19941;-70
2023/12/11 00:23:22;;;;;;;;;;;1.80;99.90;;;;;;4969106;28;19950;-70
2023/12/11 00:25:47;;;;;;;;;;;1.90;99.90;;;;;;4966866;28;20044;-70
2023/12/11 00:28:13;;;;;;;;;;;2.00;99.90;;;;;;4965839;28;19975;-69
2023/12/11 00:30:38;;;;;;;;;;;2.00;99.90;;;;;;4961330;28;19966;-69
2023/12/11 00:33:04;;;;;;;;;;;2.00;99.90;;;;;;4970981;28;20391;-70
2023/12/11 00:35:29;;;;;;;;;;;2.00;99.90;;;;;;4965368;28;19957;-69
2023/12/11 00:37:55;;;;;;;;;;;2.00;99.90;;;;;;4973056;28;20015;-70
2023/12/11 00:40:20;;;;;;;;;;;2.10;99.90;;;;;;4969291;28;20028;-71
2023/12/11 00:42:46;;;;;;;;;;;2.10;99.90;;;;;;4970366;28;19936;-71
2023/12/11 00:45:13;;;;;;;;;;;2.10;99.90;;;;;;4961974;28;19969;-71
2023/12/11 00:47:38;;;;;;;;;;;2.20;99.90;;;;;;4961825;28;20444;-71
2023/12/11 00:50:04;;;;;;;;;;;2.10;99.90;;;;;;4967500;28;19959;-65
2023/12/11 00:52:29;;;;;;;;;;;2.10;99.90;;;;;;4950596;28;20687;-65
2023/12/11 00:54:55;;;;;;;;;;;2.10;99.90;;;;;;4964207;28;20042;-65
2023/12/11 00:57:22;;;;;;;;;;;2.10;99.90;;;;;;4964796;28;19944;-65
2023/12/11 00:59:47;;;;;;;;;;;2.10;99.90;;;;;;4962488;28;19948;-65
2023/12/11 01:02:13;;;;;;;;;;;2.10;99.90;;;;;;4965795;28;19947;-64
2023/12/11 01:04:38;;;;;;;;;;;2.10;99.90;;;;;;4967697;28;19942;-65
2023/12/11 01:07:04;;;;;;;;;;;2.10;99.90;;;;;;4967937;28;20025;-64
2023/12/11 01:09:29;;;;;;;;;;;2.10;99.90;;;;;;4967507;28;20166;-65
2023/12/11 01:11:55;;;;;;;;;;;2.00;99.90;;;;;;4970208;28;20410;-65
2023/12/11 01:14:20;;;;;;;;;;;2.10;99.90;;;;;;4970730;28;19946;-65
2023/12/11 01:16:46;;;;;;;;;;;2.10;99.90;;;;;;4968253;28;19948;-65
2023/12/11 01:19:11;;;;;;;;;;;2.10;99.90;;;;;;4965767;28;19983;-65
2023/12/11 01:21:37;;;;;;;;;;;2.10;99.90;;;;;;4960936;28;20462;-65
2023/12/11 01:24:03;;;;;;;;;;;2.10;99.90;;;;;;4969960;28;19943;-64
2023/12/11 01:26:28;;;;;;;;;;;2.10;99.90;;;;;;4966666;28;20854;-70
2023/12/11 01:28:54;;;;;;;;;;;2.10;99.90;;;;;;4967798;28;19945;-69
2023/12/11 01:31:19;;;;;;;;;;;2.10;99.90;;;;;;4964393;28;20975;-69
2023/12/11 01:33:45;;;;;;;;;;;2.20;99.90;;;;;;4965229;28;19949;-70
2023/12/11 01:36:10;;;;;;;;;;;2.10;99.90;;;;;;4964511;28;19942;-70
2023/12/11 01:38:36;;;;;;;;;;;2.10;99.90;;;;;;4959754;28;19940;-70
2023/12/11 01:41:01;;;;;;;;;;;2.10;99.90;;;;;;4966311;28;19946;-70
2023/12/11 01:43:27;;;;;;;;;;;2.10;99.90;;;;;;4964941;28;20390;-70
2023/12/11 01:46:06;;;;;;;;;;;2.20;99.90;;;;;;4966124;28;19950;-70
2023/12/11 01:48:32;;;;;;;;;;;2.20;99.90;;;;;;4968455;28;19969;-70
2023/12/11 01:50:57;;;;;;;;;;;2.20;99.90;;;;;;4964176;28;19995;-70
2023/12/11 01:53:24;;;;;;;;;;;2.20;99.90;;;;;;4966632;28;19938;-70
2023/12/11 01:55:49;;;;;;;;;;;2.20;99.90;;;;;;4963674;28;20037;-70
2023/12/11 01:58:15;;;;;;;;;;;2.20;99.90;;;;;;4965274;28;20042;-70
2023/12/11 02:00:40;;;;;;;;;;;2.20;99.90;;;;;;4961334;28;20410;-70
2023/12/11 02:03:07;;;;;;;;;;;2.20;99.90;;;;;;4961221;28;20458;-70
2023/12/11 02:05:32;;;;;;;;;;;2.30;99.90;;;;;;4958031;28;19989;-69
2023/12/11 02:07:58;;;;;;;;;;;2.20;99.90;;;;;;4963058;28;20042;-69
2023/12/11 02:10:24;;;;;;;;;;;2.30;99.90;;;;;;4961038;28;20145;-69
2023/12/11 02:12:50;;;;;;;;;;;2.10;99.90;;;;;;4960010;28;20450;-69
2023/12/11 02:15:35;;;;;;;;;;;2.00;99.90;;;;;;4960386;28;19945;-69
2023/12/11 02:18:01;;;;;;;;;;;1.90;99.90;;;;;;4962218;28;19990;-69
2023/12/11 02:20:26;;;;;;;;;;;1.80;99.90;;;;;;4960198;28;20086;-69
2023/12/11 02:22:52;;;;;;;;;;;1.80;99.90;;;;;;4963961;28;19953;-69
2023/12/11 02:25:17;;;;;;;;;;;1.70;99.90;;;;;;4963875;28;20327;-69
2023/12/11 02:27:43;;;;;;;;;;;1.70;99.90;;;;;;4960505;28;19984;-69
2023/12/11 02:30:08;;;;;;;;;;;1.80;99.90;;;;;;4960412;28;20462;-69
2023/12/11 02:32:34;;;;;;;;;;;1.80;99.90;;;;;;4966896;28;20473;-69
2023/12/11 02:34:59;;;;;;;;;;;1.80;99.90;;;;;;4971932;28;19972;-69
2023/12/11 02:37:25;;;;;;;;;;;1.80;99.90;;;;;;4973131;28;20531;-69
2023/12/11 02:39:50;;;;;;;;;;;1.80;99.90;;;;;;4972437;28;19946;-69
2023/12/11 02:42:16;;;;;;;;;;;1.90;99.90;;;;;;4975813;28;19992;-69
2023/12/11 02:44:41;;;;;;;;;;;2.00;99.90;;;;;;4969509;28;19941;-69
2023/12/11 02:47:07;;;;;;;;;;;1.90;99.90;;;;;;4971255;28;19972;-69
2023/12/11 02:49:32;;;;;;;;;;;1.90;99.90;;;;;;4968594;28;20106;-69
2023/12/11 02:51:58;;;;;;;;;;;1.90;99.90;;;;;;4971568;28;19982;-69
2023/12/11 02:54:23;;;;;;;;;;;1.90;99.90;;;;;;4970850;28;20401;-69
2023/12/11 02:56:49;;;;;;;;;;;1.90;99.90;;;;;;4975804;28;19954;-70
2023/12/11 02:59:14;;;;;;;;;;;1.90;99.90;;;;;;4972533;28;19955;-69
2023/12/11 03:01:40;;;;;;;;;;;1.90;99.90;;;;;;4961460;28;20549;-69
2023/12/11 03:04:06;;;;;;;;;;;1.90;99.90;;;;;;4969381;28;19944;-69
2023/12/11 03:06:31;;;;;;;;;;;1.90;99.90;;;;;;4969957;28;19976;-69
2023/12/11 03:08:57;;;;;;;;;;;1.90;99.90;;;;;;4976905;28;19945;-69
2023/12/11 03:11:22;;;;;;;;;;;2.00;99.90;;;;;;4977511;28;19982;-69
2023/12/11 03:13:47;;;;;;;;;;;2.00;99.90;;;;;;4968310;28;20432;-69
2023/12/11 03:16:13;;;;;;;;;;;2.00;99.90;;;;;;4967642;28;19945;-69
2023/12/11 03:18:40;;;;;;;;;;;1.80;99.90;;;;;;4974007;28;19946;-65
2023/12/11 03:21:05;;;;;;;;;;;1.70;99.90;;;;;;4971226;28;20093;-64
2023/12/11 03:23:31;;;;;;;;;;;1.70;99.90;;;;;;4971004;28;19943;-65
2023/12/11 03:25:57;;;;;;;;;;;1.70;99.90;;;;;;4974347;28;20008;-65
2023/12/11 03:28:24;;;;;;;;;;;1.50;99.90;;;;;;4972346;28;19938;-65
2023/12/11 03:30:50;;;;;;;;;;;1.50;99.90;;;;;;4974392;28;19964;-65
2023/12/11 03:33:16;;;;;;;;;;;1.50;99.90;;;;;;4968795;28;19947;-64
2023/12/11 03:35:41;;;;;;;;;;;1.40;99.90;;;;;;4965955;28;19944;-65
2023/12/11 03:38:07;;;;;;;;;;;1.40;99.90;;;;;;4974342;28;20077;-65
2023/12/11 03:40:32;;;;;;;;;;;1.30;99.90;;;;;;4971394;28;20004;-65
2023/12/11 03:42:58;;;;;;;;;;;1.30;99.90;;;;;;4960418;28;20020;-66
2023/12/11 03:45:23;;;;;;;;;;;1.30;99.90;;;;;;4971086;28;20882;-64
2023/12/11 03:47:49;;;;;;;;;;;1.30;99.90;;;;;;4972644;28;20381;-65
2023/12/11 03:50:15;;;;;;;;;;;1.40;99.90;;;;;;4969728;28;19975;-65
2023/12/11 03:52:40;;;;;;;;;;;1.40;99.90;;;;;;4963662;28;20796;-69
2023/12/11 03:55:06;;;;;;;;;;;1.50;99.90;;;;;;4968409;28;19964;-65
2023/12/11 03:57:31;;;;;;;;;;;1.60;99.90;;;;;;4974354;28;20050;-65
2023/12/11 03:59:57;;;;;;;;;;;1.60;99.90;;;;;;4968257;28;20385;-64
2023/12/11 04:02:22;;;;;;;;;;;1.60;99.90;;;;;;4966268;28;19943;-65
2023/12/11 04:04:48;;;;;;;;;;;1.60;99.90;;;;;;4966699;28;19942;-64
2023/12/11 04:07:13;;;;;;;;;;;1.60;99.90;;;;;;4971430;28;20014;-65
2023/12/11 04:09:39;;;;;;;;;;;1.60;99.90;;;;;;4968099;28;20123;-65
2023/12/11 04:12:05;;;;;;;;;;;1.70;99.90;;;;;;4963961;28;19966;-69
2023/12/11 04:14:30;;;;;;;;;;;1.70;99.90;;;;;;4968267;28;20007;-69
2023/12/11 04:16:56;;;;;;;;;;;1.80;99.90;;;;;;4964598;28;19983;-69
2023/12/11 04:19:21;;;;;;;;;;;1.70;99.90;;;;;;4964451;28;20019;-69
2023/12/11 04:21:47;;;;;;;;;;;1.70;99.90;;;;;;4962889;28;20455;-69
2023/12/11 04:24:12;;;;;;;;;;;1.70;99.90;;;;;;4968673;28;19952;-70
2023/12/11 04:26:38;;;;;;;;;;;1.70;99.90;;;;;;4974286;28;19949;-69
2023/12/11 04:29:03;;;;;;;;;;;1.70;99.90;;;;;;4969991;28;19999;-65
2023/12/11 04:31:29;;;;;;;;;;;1.70;99.90;;;;;;4957522;28;20036;-65
2023/12/11 04:33:54;;;;;;;;;;;1.80;99.90;;;;;;4970846;28;19947;-64
2023/12/11 04:36:20;;;;;;;;;;;1.80;99.90;;;;;;4963175;28;19954;-65
2023/12/11 04:38:45;;;;;;;;;;;1.80;99.90;;;;;;4973306;28;19947;-65
2023/12/11 04:41:11;;;;;;;;;;;1.80;99.90;;;;;;4977837;28;20603;-66
2023/12/11 04:43:36;;;;;;;;;;;1.80;99.90;;;;;;4971220;28;19952;-65
2023/12/11 04:46:02;;;;;;;;;;;1.80;99.90;;;;;;4968554;28;19946;-65
2023/12/11 04:48:27;;;;;;;;;;;1.80;99.90;;;;;;4972667;28;20206;-65
2023/12/11 04:50:53;;;;;;;;;;;1.80;99.90;;;;;;4967233;28;20044;-65
2023/12/11 04:53:19;;;;;;;;;;;1.90;99.90;;;;;;4964355;28;19955;-64
2023/12/11 04:55:44;;;;;;;;;;;1.80;99.90;;;;;;4967188;28;19941;-65
2023/12/11 04:58:10;;;;;;;;;;;1.70;99.90;;;;;;4968405;28;19951;-65
2023/12/11 05:00:35;;;;;;;;;;;1.70;99.90;;;;;;4972906;28;19954;-67
2023/12/11 05:03:01;;;;;;;;;;;1.70;99.90;;;;;;4971104;28;19948;-65
2023/12/11 05:05:26;;;;;;;;;;;1.70;99.90;;;;;;4979615;28;20430;-69
2023/12/11 05:07:52;;;;;;;;;;;1.70;99.90;;;;;;4978023;28;19948;-71
2023/12/11 05:10:17;;;;;;;;;;;1.70;99.90;;;;;;4977722;28;20011;-71
2023/12/11 05:12:43;;;;;;;;;;;1.70;99.90;;;;;;4965344;28;19984;-70
2023/12/11 05:15:08;;;;;;;;;;;1.60;99.90;;;;;;4972349;28;20383;-70
2023/12/11 05:17:34;;;;;;;;;;;1.70;99.90;;;;;;4977658;28;19952;-71
2023/12/11 05:19:59;;;;;;;;;;;1.80;99.90;;;;;;4969642;28;19947;-71
2023/12/11 05:22:25;;;;;;;;;;;1.80;99.90;;;;;;4975520;28;19948;-71
2023/12/11 05:24:51;;;;;;;;;;;1.70;99.90;;;;;;4977356;28;19948;-70
2023/12/11 05:27:16;;;;;;;;;;;1.70;99.90;;;;;;4967459;28;19961;-70
2023/12/11 05:29:42;;;;;;;;;;;1.70;99.90;;;;;;4967031;28;20026;-70
2023/12/11 05:32:10;;;;;;;;;;;1.80;99.90;;;;;;4975971;28;19944;-70
2023/12/11 05:34:35;;;;;;;;;;;1.90;99.90;;;;;;4971631;28;19960;-70
2023/12/11 05:37:01;;;;;;;;;;;1.90;99.90;;;;;;4967900;28;20001;-70
2023/12/11 05:39:26;;;;;;;;;;;2.00;99.90;;;;;;4973617;28;21143;-71
2023/12/11 05:41:52;;;;;;;;;;;2.10;99.90;;;;;;4974424;28;20094;-70
2023/12/11 05:44:18;;;;;;;;;;;2.10;99.90;;;;;;4978132;28;19944;-65
2023/12/11 05:46:43;;;;;;;;;;;2.30;99.90;;;;;;4973646;28;19962;-64
2023/12/11 05:49:10;;;;;;;;;;;2.30;99.90;;;;;;4957178;28;19952;-65
2023/12/11 05:51:35;;;;;;;;;;;2.30;99.90;;;;;;4973743;28;20193;-64
2023/12/11 05:54:01;;;;;;;;;;;2.30;99.90;;;;;;4977768;28;19941;-65
2023/12/11 05:56:26;;;;;;;;;;;2.30;99.90;;;;;;4975651;28;19945;-64
2023/12/11 05:58:53;;;;;;;;;;;2.40;99.90;;;;;;4972095;28;20433;-64
2023/12/11 06:01:19;;;;;;;;;;;2.50;99.90;;;;;;4972132;28;20004;-69
2023/12/11 06:03:44;;;;;;;;;;;2.40;99.90;;;;;;4972438;28;19950;-71
2023/12/11 06:06:14;;;;;;;;;;;2.30;99.90;;;;;;4960892;28;19945;-67
2023/12/11 06:08:39;;;;;;;;;;;2.30;99.90;;;;;;4967302;28;19948;-67
2023/12/11 06:11:05;;;;;;;;;;;2.30;99.90;;;;;;4956307;28;19972;-65
2023/12/11 06:13:30;;;;;;;;;;;2.30;99.90;;;;;;4957392;28;19984;-68
2023/12/11 06:15:56;;;;;;;;;;;2.40;99.90;;;;;;4959280;28;20240;-69
2023/12/11 06:18:21;;;;;;;;;;;2.50;99.90;;;;;;4960813;28;20440;-69
2023/12/11 06:20:47;;;;;;;;;;;2.50;99.90;;;;;;4965071;28;19949;-70
2023/12/11 06:23:13;;;;;;;;;;;2.60;99.90;;;;;;4964871;28;19942;-70
2023/12/11 06:25:38;;;;;;;;;;;2.60;99.90;;;;;;4964260;28;20045;-68
2023/12/11 06:28:04;;;;;;;;;;;2.60;99.90;;;;;;4963439;28;20493;-67
2023/12/11 06:30:29;;;;;;;;;;;2.50;99.90;;;;;;4960723;28;19964;-66
2023/12/11 06:32:55;;;;;;;;;;;2.40;99.90;;;;;;4964448;28;19949;-67
2023/12/11 06:35:20;;;;;;;;;;;2.20;99.90;;;;;;4966779;28;19944;-68
2023/12/11 06:37:46;;;;;;;;;;;2.10;99.90;;;;;;4966667;28;20059;-67
2023/12/11 06:40:11;;;;;;;;;;;2.00;99.90;;;;;;4965765;28;20500;-67
2023/12/11 06:42:37;;;;;;;;;;;1.90;99.90;;;;;;4968176;28;20316;-67
2023/12/11 06:45:05;;;;;;;;;;;1.80;99.90;;;;;;4966579;28;19943;-67
2023/12/11 06:47:31;;;;;;;;;;;1.80;99.90;;;;;;4963295;28;20032;-67
2023/12/11 06:49:56;;;;;;;;;;;1.80;99.90;;;;;;4952951;28;19977;-65
2023/12/11 06:52:21;;;;;;;;;;;2.00;99.90;;;;;;4954222;28;19938;-65
2023/12/11 06:54:47;;;;;;;;;;;2.00;99.90;;;;;;4956946;28;20021;-64
2023/12/11 06:57:13;;;;;;;;;;;2.00;99.90;;;;;;4957128;28;19950;-64
2023/12/11 06:59:38;;;;;;;;;;;1.90;99.90;;;;;;4959123;28;19939;-64
2023/12/11 07:02:04;;;;;;;;;;;1.90;99.90;;;;;;4947358;28;19944;-66
2023/12/11 07:04:29;;;;;;;;;;;1.80;99.90;;;;;;4955585;28;19956;-65
2023/12/11 07:06:55;;;;;;;;;;;1.80;99.90;;;;;;4951039;28;20000;-65
2023/12/11 07:09:21;;;;;;;;;;;1.80;99.90;;;;;;4953570;28;20055;-65
2023/12/11 07:11:46;;;;;;;;;;;1.80;99.90;;;;;;4950346;28;19950;-65
2023/12/11 07:14:12;;;;;;;;;;;1.90;99.90;;;;;;4954143;28;20438;-66
2023/12/11 07:16:37;;;;;;;;;;;1.90;99.90;;;;;;4950620;28;19985;-63
2023/12/11 07:19:04;;;;;;;;;;;1.90;99.90;;;;;;4952492;28;19991;-63
2023/12/11 07:21:29;;;;;;;;;;;1.90;99.90;;;;;;4950795;28;20513;-63
2023/12/11 07:23:55;;;;;;;;;;;1.90;99.90;;;;;;4954520;28;19970;-63
2023/12/11 07:26:20;;;;;;;;;;;1.90;99.90;;;;;;4954875;28;19950;-64
2023/12/11 07:28:46;;;;;;;;;;;1.90;99.90;;;;;;4955461;28;20324;-63
2023/12/11 07:31:11;;;;;;;;;;;1.90;99.90;;;;;;4954385;28;19977;-64
2023/12/11 07:33:37;;;;;;;;;;;1.80;99.90;;;;;;4952267;28;19943;-63
2023/12/11 07:36:04;;;;;;;;;;;1.90;99.90;;;;;;4947583;28;21720;-63
2023/12/11 07:38:30;;;;;;;;;;;1.90;99.90;;;;;;4956526;28;19941;-64
2023/12/11 07:40:56;;;;;;;;;;;2.00;99.90;;;;;;4956853;28;19947;-63
2023/12/11 07:43:22;;;;;;;;;;;2.20;99.90;;;;;;4954309;28;19941;-64
2023/12/11 07:45:47;;;;;;;;;;;2.30;99.90;;;;;;4950884;28;19939;-64
2023/12/11 07:48:13;;;;;;;;;;;2.50;99.90;;;;;;4971551;28;20466;-64
2023/12/11 07:50:39;;;;;;;;;;;2.60;99.90;;;;;;4974321;28;20468;-64
2023/12/11 07:53:05;;;;;;;;;;;2.60;99.90;;;;;;4969463;28;20037;-66
2023/12/11 07:55:30;;;;;;;;;;;2.60;99.90;;;;;;4972721;28;20322;-66
2023/12/11 07:57:56;;;;;;;;;;;2.70;99.90;;;;;;4973996;28;20484;-65
2023/12/11 08:00:21;;;;;;;;;;;2.60;99.90;;;;;;4972525;28;20392;-65
2023/12/11 08:02:47;;;;;;;;;;;2.50;99.90;;;;;;4971398;28;19943;-66
2023/12/11 08:05:13;;;;;;;;;;;2.40;99.90;;;;;;4971707;28;19953;-66
2023/12/11 08:07:38;;;;;;;;;;;2.50;99.90;;;;;;4968877;28;20328;-66
2023/12/11 08:10:04;;;;;;;;;;;2.60;99.90;;;;;;4958990;28;19964;-64
2023/12/11 08:12:33;;;;;;;;;;;2.50;99.90;;;;;;4976626;28;20025;-65
2023/12/11 08:14:58;;;;;;;;;;;2.50;99.90;;;;;;4976887;28;19943;-66
2023/12/11 08:17:24;;;;;;;;;;;2.50;99.90;;;;;;4981651;28;19949;-66
2023/12/11 08:19:49;;;;;;;;;;;2.50;99.90;;;;;;4974105;28;19945;-66
2023/12/11 08:22:15;;;;;;;;;;;2.50;99.90;;;;;;4977416;28;19954;-65
2023/12/11 08:24:40;;;;;;;;;;;2.40;99.90;;;;;;4976050;28;20378;-65
2023/12/11 08:27:07;;;;;;;;;;;2.40;99.90;;;;;;4978365;28;19945;-65
2023/12/11 08:29:35;;;;;;;;;;;2.50;99.90;;;;;;4975679;28;19967;-65
2023/12/11 08:33:59;;;;;;;;;;;2.60;99.90;;;;;;4773862;27;8129762;-66
2023/12/11 08:36:24;;;;;;;;;;;2.70;99.90;;;;;;5071655;28;20453;-65
2023/12/11 08:38:50;;;;;;;;;;;2.80;99.90;;;;;;5084883;28;19942;-65
2023/12/11 08:41:16;;;;;;;;;;;2.90;99.90;;;;;;5076934;28;19978;-66
2023/12/11 08:43:41;;;;;;;;;;;3.00;99.90;;;;;;5081777;28;20416;-65
2023/12/11 08:46:07;;;;;;;;;;;3.00;99.90;;;;;;5082619;28;19931;-66
2023/12/11 08:48:32;;;;;;;;;;;3.10;99.90;;;;;;5085945;28;20033;-66
2023/12/11 08:50:58;;;;;;;;;;;3.10;99.90;;;;;;5083213;28;20360;-65
2023/12/11 08:53:23;;;;;;;;;;;3.20;99.90;;;;;;5085862;28;20359;-66
2023/12/11 08:55:49;;;;;;;;;;;3.10;99.90;;;;;;5084890;28;20046;-66
2023/12/11 08:58:15;;;;;;;;;;;3.00;99.90;;;;;;5086087;28;20372;-66
2023/12/11 09:00:41;;;;;;;;;;;3.10;99.90;;;;;;5083986;28;20369;-66
2023/12/11 09:03:07;;;;;;;;;;;3.10;99.90;;;;;;5082551;28;19971;-66
2023/12/11 09:05:32;;;;;;;;;;;3.10;99.90;;;;;;5073266;28;20034;-64
2023/12/11 09:07:58;;;;;;;;;;;3.10;99.90;;;;;;5079661;28;20679;-64
2023/12/11 09:10:23;;;;;;;;;;;3.20;99.90;;;;;;5074195;28;19944;-64
2023/12/11 09:12:49;;;;;;;;;;;3.20;99.90;;;;;;5067468;28;20384;-64
2023/12/11 09:15:14;;;;;;;;;;;3.30;99.90;;;;;;5048254;28;19939;-64
2023/12/11 09:17:41;;;;;;;;;;;3.40;99.90;;;;;;5068330;28;20375;-65
2023/12/11 09:20:08;;;;;;;;;;;3.40;99.90;;;;;;5065986;28;19946;-64
2023/12/11 09:22:34;;;;;;;;;;;3.40;99.90;;;;;;5065520;28;19939;-64
2023/12/11 09:24:59;;;;;;;;;;;3.50;99.90;;;;;;5067600;28;20405;-64
2023/12/11 09:27:25;;;;;;;;;;;3.60;99.90;;;;;;5068898;28;19972;-64
2023/12/11 09:29:50;;;;;;;;;;;3.60;99.90;;;;;;5071030;28;19940;-65
2023/12/11 09:32:16;;;;;;;;;;;3.60;99.90;;;;;;5065645;28;19978;-64
2023/12/11 09:34:42;;;;;;;;;;;3.70;99.90;;;;;;5085449;28;19971;-65
2023/12/11 09:37:07;;;;;;;;;;;3.70;99.90;;;;;;5083474;28;20192;-64
2023/12/11 09:39:32;;;;;;;;;;;3.70;99.90;;;;;;5078310;28;19953;-64
2023/12/11 09:41:59;;;;;;;;;;;3.70;99.90;;;;;;5083784;28;20172;-64
2023/12/11 09:44:25;;;;;;;;;;;3.70;99.90;;;;;;5079463;28;20388;-65
2023/12/11 09:46:52;;;;;;;;;;;3.40;99.90;;;;;;5072024;28;20009;-64
2023/12/11 09:49:18;;;;;;;;;;;3.30;99.90;;;;;;5070908;28;19975;-65
2023/12/11 09:51:43;;;;;;;;;;;3.40;99.90;;;;;;5072599;28;20717;-64
2023/12/11 09:54:09;;;;;;;;;;;3.40;99.90;;;;;;5076266;28;19938;-64
2023/12/11 09:56:35;;;;;;;;;;;3.40;99.90;;;;;;5071660;28;19943;-65
2023/12/11 09:59:02;;;;;;;;;;;3.30;99.90;;;;;;5073854;28;19966;-64
2023/12/11 10:01:28;;;;;;;;;;;3.20;99.90;;;;;;5071222;28;20259;-64
2023/12/11 10:03:53;;;;;;;;;;;3.20;99.90;;;;;;5074363;28;19943;-65
2023/12/11 10:06:19;;;;;;;;;;;3.20;99.90;;;;;;5075855;28;19975;-65
2023/12/11 10:08:47;;;;;;;;;;;3.10;99.90;;;;;;5072388;28;19950;-65
2023/12/11 10:11:17;;;;;;;;;;;3.10;99.90;;;;;;5074444;28;20316;-64
2023/12/11 10:13:43;;;;;;;;;;;3.00;99.90;;;;;;5076171;28;20408;-64
2023/12/11 10:16:26;;;;;;;;;;;2.90;99.90;;;;;;5073029;28;19946;-64
2023/12/11 10:18:51;;;;;;;;;;;3.00;99.90;;;;;;5072063;28;20045;-66
2023/12/11 10:21:17;;;;;;;;;;;3.00;99.90;;;;;;5071202;28;20372;-66
2023/12/11 10:23:43;;;;;;;;;;;2.90;99.90;;;;;;5073657;28;19942;-66
2023/12/11 10:26:08;;;;;;;;;;;2.80;99.90;;;;;;5066638;28;20429;-65
2023/12/11 10:28:34;;;;;;;;;;;2.80;99.90;;;;;;5075496;28;19972;-65
2023/12/11 10:31:04;;;;;;;;;;;2.80;99.90;;;;;;5069341;28;19965;-66
2023/12/11 10:33:33;;;;;;;;;;;2.70;99.90;;;;;;5069342;28;20533;-66
2023/12/11 10:36:12;;;;;;;;;;;2.70;99.90;;;;;;5068959;28;20082;-66
2023/12/11 10:38:38;;;;;;;;;;;2.70;99.90;;;;;;5068380;28;20360;-65
2023/12/11 10:41:04;;;;;;;;;;;2.80;99.90;;;;;;5068294;28;19947;-66
2023/12/11 10:43:38;;;;;;;;;;;2.90;99.90;;;;;;5073308;28;19940;-66
2023/12/11 10:46:04;;;;;;;;;;;3.00;99.90;;;;;;5072702;28;19928;-66
2023/12/11 10:48:29;;;;;;;;;;;3.10;99.90;;;;;;5070967;28;19947;-66
2023/12/11 10:50:55;;;;;;;;;;;3.20;99.90;;;;;;5070772;28;20037;-66
2023/12/11 10:53:20;;;;;;;;;;;3.20;99.90;;;;;;5071496;28;19966;-66
2023/12/11 10:55:46;;;;;;;;;;;3.30;99.90;;;;;;5070290;28;19950;-66
2023/12/11 10:58:12;;;;;;;;;;;3.40;99.90;;;;;;5068087;28;22051;-67
2023/12/11 11:00:38;;;;;;;;;;;3.40;99.90;;;;;;5073719;28;20571;-65
2023/12/11 11:03:05;;;;;;;;;;;3.50;99.90;;;;;;5070046;28;20423;-65
2023/12/11 11:05:31;;;;;;;;;;;3.60;99.90;;;;;;5070686;28;19940;-65
2023/12/11 11:08:02;;;;;;;;;;;3.70;99.90;;;;;;5070836;28;20003;-66
2023/12/11 11:10:33;;;;;;;;;;;3.80;99.90;;;;;;5065771;28;20025;-66
2023/12/11 11:13:17;;;;;;;;;;;3.80;99.90;;;;;;5066755;28;20032;-66
2023/12/11 11:15:49;;;;;;;;;;;3.70;99.90;;;;;;5074462;28;19962;-66
2023/12/11 11:18:15;;;;;;;;;;;3.80;99.90;;;;;;5070936;28;20355;-66
2023/12/11 11:20:41;;;;;;;;;;;3.80;99.90;;;;;;5071680;28;20006;-66
2023/12/11 11:23:18;;;;;;;;;;;3.70;99.90;;;;;;5072048;28;19993;-66
2023/12/11 11:25:51;;;;;;;;;;;3.50;99.90;;;;;;5069205;28;20367;-66
2023/12/11 11:28:40;;;;;;;;;;;3.50;99.90;;;;;;5074462;28;20057;-65
2023/12/11 11:31:07;;;;;;;;;;;3.50;99.90;;;;;;5073379;28;19955;-67
2023/12/11 11:33:46;;;;;;;;;;;3.40;99.90;;;;;;5069193;28;19975;-66
2023/12/11 11:36:11;;;;;;;;;;;3.40;99.90;;;;;;5072186;28;19953;-65
2023/12/11 11:38:53;;;;;;;;;;;3.40;99.90;;;;;;5073156;28;20629;-66
2023/12/11 11:41:28;;;;;;;;;;;3.30;99.90;;;;;;5071222;28;20336;-66
2023/12/11 11:44:00;;;;;;;;;;;3.50;99.90;;;;;;5073111;28;19949;-66
2023/12/11 11:46:26;;;;;;;;;;;3.60;99.90;;;;;;5070619;28;19969;-66
2023/12/11 11:48:52;;;;;;;;;;;3.70;99.90;;;;;;5069268;28;19943;-66
2023/12/11 11:51:19;;;;;;;;;;;3.80;99.90;;;;;;5061352;28;20412;-66
2023/12/11 11:53:46;;;;;;;;;;;3.80;99.90;;;;;;5070207;28;19968;-66
2023/12/11 11:56:11;;;;;;;;;;;3.70;99.90;;;;;;5073869;28;20423;-66
2023/12/11 11:58:37;;;;;;;;;;;3.70;99.90;;;;;;5066319;28;19938;-66
2023/12/11 12:01:03;;;;;;;;;;;3.60;99.90;;;;;;5071467;28;19940;-66
2023/12/11 12:03:38;;;;;;;;;;;3.40;99.90;;;;;;5069727;28;19958;-65
2023/12/11 12:06:04;;;;;;;;;;;3.40;99.90;;;;;;5070351;28;19961;-65
2023/12/11 12:08:29;;;;;;;;;;;3.30;99.90;;;;;;5066468;28;19950;-65
2023/12/11 12:10:56;;;;;;;;;;;3.30;99.90;;;;;;5071591;28;20405;-66
2023/12/11 12:13:21;;;;;;;;;;;3.30;99.90;;;;;;5070826;28;19967;-66
2023/12/11 12:15:49;;;;;;;;;;;3.30;99.90;;;;;;5067395;28;19940;-66
2023/12/11 12:18:14;;;;;;;;;;;3.30;99.90;;;;;;5063398;28;19939;-66
2023/12/11 12:20:40;;;;;;;;;;;3.30;99.90;;;;;;5061583;28;20353;-66
2023/12/11 12:23:06;;;;;;;;;;;3.50;99.90;;;;;;5061949;28;20253;-66
2023/12/11 12:25:31;;;;;;;;;;;3.40;99.90;;;;;;5066545;28;20331;-66
2023/12/11 12:28:06;;;;;;;;;;;3.30;99.90;;;;;;5066867;28;19942;-66
2023/12/11 12:30:32;;;;;;;;;;;3.30;99.90;;;;;;5068740;28;21014;-66
2023/12/11 12:32:58;;;;;;;;;;;3.20;99.90;;;;;;5081908;28;20022;-66
2023/12/11 12:35:24;;;;;;;;;;;3.10;99.90;;;;;;5072202;28;19960;-66
2023/12/11 12:37:50;;;;;;;;;;;3.10;99.90;;;;;;5073688;28;19942;-66
2023/12/11 12:40:19;;;;;;;;;;;3.20;99.90;;;;;;5070945;28;19940;-66
2023/12/11 12:42:44;;;;;;;;;;;3.30;99.90;;;;;;5072506;28;19947;-66
2023/12/11 12:45:10;;;;;;;;;;;3.50;99.90;;;;;;5070301;28;20503;-66
2023/12/11 12:47:45;;;;;;;;;;;3.40;99.90;;;;;;5071632;28;19952;-65
2023/12/11 12:50:18;;;;;;;;;;;3.40;99.90;;;;;;5067150;28;20302;-65
2023/12/11 12:52:44;;;;;;;;;;;3.40;99.90;;;;;;5073971;28;19975;-66
2023/12/11 12:55:09;;;;;;;;;;;3.30;99.90;;;;;;5072682;28;19946;-65
2023/12/11 12:57:36;;;;;;;;;;;3.30;99.90;;;;;;5074723;28;20392;-65
2023/12/11 13:00:01;;;;;;;;;;;3.40;99.90;;;;;;5068601;28;19940;-65
2023/12/11 13:02:27;;;;;;;;;;;3.50;99.90;;;;;;5078565;28;20464;-65
2023/12/11 13:04:54;;;;;;;;;;;3.60;99.90;;;;;;5071287;28;20618;-66
2023/12/11 13:07:21;;;;;;;;;;;3.70;99.90;;;;;;5078283;28;19945;-66
2023/12/11 13:09:47;;;;;;;;;;;3.70;99.90;;;;;;5076833;28;19933;-67
2023/12/11 13:12:15;;;;;;;;;;;3.60;99.90;;;;;;5078930;28;20008;-66
2023/12/11 13:14:41;;;;;;;;;;;3.60;99.90;;;;;;5075831;28;20014;-66
2023/12/11 13:17:06;;;;;;;;;;;3.50;99.90;;;;;;5070837;28;20062;-66
2023/12/11 13:19:32;;;;;;;;;;;3.40;99.90;;;;;;5074588;28;19944;-66
2023/12/11 13:21:57;;;;;;;;;;;3.40;99.90;;;;;;5075721;28;20246;-66
2023/12/11 13:24:23;;;;;;;;;;;3.30;99.90;;;;;;5075514;28;20012;-66
2023/12/11 13:26:48;;;;;;;;;;;3.20;99.90;;;;;;5077893;28;20947;-66
2023/12/11 13:29:14;;;;;;;;;;;3.20;99.90;;;;;;5074850;28;19943;-66
2023/12/11 13:31:40;;;;;;;;;;;3.20;99.90;;;;;;5076452;28;19944;-67
2023/12/11 13:34:05;;;;;;;;;;;3.20;99.90;;;;;;5072319;28;19968;-67
2023/12/11 13:36:30;;;;;;;;;;;3.30;99.90;;;;;;5074701;28;20491;-67
2023/12/11 13:38:56;;;;;;;;;;;3.30;99.90;;;;;;5073667;28;19948;-67
2023/12/11 13:41:21;;;;;;;;;;;3.30;99.90;;;;;;5074709;28;19991;-67
2023/12/11 13:43:47;;;;;;;;;;;3.50;99.90;;;;;;5073484;28;19954;-67
2023/12/11 13:46:12;;;;;;;;;;;3.60;99.90;;;;;;5075288;28;20052;-67
2023/12/11 13:48:38;;;;;;;;;;;3.50;99.90;;;;;;5071433;28;20286;-66
2023/12/11 13:51:05;;;;;;;;;;;3.40;99.90;;;;;;5075361;28;20582;-67
2023/12/11 13:53:31;;;;;;;;;;;3.30;99.90;;;;;;5071783;28;19993;-67
2023/12/11 13:55:57;;;;;;;;;;;3.30;99.90;;;;;;5068464;28;19952;-66
2023/12/11 13:58:22;;;;;;;;;;;3.30;99.90;;;;;;5070460;28;19947;-65
2023/12/11 14:00:48;;;;;;;;;;;3.40;99.90;;;;;;5067568;28;20341;-67
2023/12/11 14:03:13;;;;;;;;;;;3.50;99.90;;;;;;5075138;28;20074;-67
2023/12/11 14:05:39;;;;;;;;;;;3.50;99.90;;;;;;5074200;28;20307;-67
2023/12/11 14:08:04;;;;;;;;;;;3.60;99.90;;;;;;5073633;28;19948;-67
2023/12/11 14:10:30;;;;;;;;;;;3.50;99.90;;;;;;5073420;28;19948;-66
2023/12/11 14:12:57;;;;;;;;;;;3.40;99.90;;;;;;5074207;28;20502;-67
2023/12/11 14:15:23;;;;;;;;;;;3.50;99.90;;;;;;5075836;28;19984;-66
2023/12/11 14:17:49;;;;;;;;;;;3.50;99.90;;;;;;5074661;28;19943;-67
2023/12/11 14:20:15;;;;;;;;;;;3.40;99.90;;;;;;5075030;28;20404;-67
2023/12/11 14:22:40;;;;;;;;;;;3.40;99.90;;;;;;5069453;28;19977;-67
2023/12/11 14:25:06;;;;;;;;;;;3.50;99.90;;;;;;5073479;28;19943;-67
2023/12/11 14:27:32;;;;;;;;;;;3.60;99.90;;;;;;5071516;28;19947;-67